Time;durP1;ratioP1;P1;durP2;ratioP2;P2;SDS_P1;SDS_P2;PMS_P1;PMS_P2;Temp;Humidity;BMP_temperature;BMP_pressure;BME280_temperature;BME280_humidity;BME280_pressure;Samples;Min_cycle;Max_cycle;Signal;HPM_P1;HPM_P2
2021/07/17 00:00:29;;;;;;;28.83;14.07;;;17.60;82.50;;;;;;5098814;28;20180;-91
2021/07/17 00:02:55;;;;;;;35.20;13.00;;;17.50;82.60;;;;;;5105662;28;20390;-91
2021/07/17 00:05:21;;;;;;;31.73;13.77;;;17.60;82.30;;;;;;5094159;28;20410;-90
2021/07/17 00:07:47;;;;;;;54.05;16.15;;;17.50;82.50;;;;;;5094230;28;20195;-91
2021/07/17 00:10:25;;;;;;;40.37;14.53;;;17.60;82.20;;;;;;5081264;28;20183;-91
2021/07/17 00:12:52;;;;;;;34.00;12.25;;;17.60;82.20;;;;;;5073482;28;20497;-90
2021/07/17 00:15:21;;;;;;;26.70;12.52;;;17.50;81.90;;;;;;5072828;28;20196;-90
2021/07/17 00:17:47;;;;;;;28.85;14.18;;;17.50;82.50;;;;;;5072498;28;20176;-90
2021/07/17 00:20:14;;;;;;;44.17;14.05;;;17.50;82.60;;;;;;5072889;28;20192;-91
2021/07/17 00:22:41;;;;;;;22.00;13.23;;;17.40;82.80;;;;;;5072307;28;20574;-91
2021/07/17 00:25:16;;;;;;;30.10;13.93;;;17.40;82.90;;;;;;5073547;28;20168;-90
2021/07/17 00:27:42;;;;;;;27.92;14.00;;;17.50;83.20;;;;;;5073856;28;20172;-90
2021/07/17 00:30:08;;;;;;;30.30;13.80;;;17.50;82.90;;;;;;5072321;28;20180;-90
2021/07/17 00:32:34;;;;;;;29.10;13.23;;;17.50;83.20;;;;;;5072952;28;20271;-90
2021/07/17 00:35:00;;;;;;;24.45;13.35;;;17.50;83.00;;;;;;5092798;28;20269;-90
2021/07/17 00:37:26;;;;;;;35.97;15.43;;;17.40;83.20;;;;;;5092903;28;20185;-91
2021/07/17 00:39:52;;;;;;;30.70;13.50;;;17.50;83.20;;;;;;5094062;28;20184;-91
2021/07/17 00:42:18;;;;;;;30.97;12.43;;;17.40;83.10;;;;;;5092248;28;20207;-90
2021/07/17 00:44:43;;;;;;;30.70;14.50;;;17.40;83.10;;;;;;5092681;28;20909;-90
2021/07/17 00:47:12;;;;;;;37.43;15.93;;;17.30;83.20;;;;;;5092294;28;20176;-90
2021/07/17 00:49:38;;;;;;;33.95;17.02;;;17.40;83.50;;;;;;5094092;28;20172;-91
2021/07/17 00:52:04;;;;;;;42.53;15.07;;;17.30;84.50;;;;;;5092467;28;20679;-90
2021/07/17 00:54:32;;;;;;;30.38;13.73;;;17.40;83.40;;;;;;5093779;28;20196;-91
2021/07/17 00:57:02;;;;;;;35.95;15.77;;;17.50;83.20;;;;;;5094531;28;20215;-90
2021/07/17 00:59:31;;;;;;;39.85;14.93;;;17.40;83.10;;;;;;5092730;28;20175;-90
2021/07/17 01:01:58;;;;;;;30.77;14.70;;;17.30;83.70;;;;;;5092038;28;20208;-91
2021/07/17 01:04:25;;;;;;;31.20;14.48;;;17.30;84.10;;;;;;5092593;28;20597;-91
2021/07/17 01:06:51;;;;;;;34.30;16.02;;;17.30;84.20;;;;;;5092730;28;20267;-90
2021/07/17 01:09:17;;;;;;;31.38;16.13;;;17.30;84.30;;;;;;5092239;28;20199;-90
2021/07/17 01:11:44;;;;;;;29.40;13.67;;;17.30;84.40;;;;;;5091826;28;20633;-91
2021/07/17 01:14:09;;;;;;;24.58;14.00;;;17.40;84.10;;;;;;5092889;28;20175;-90
2021/07/17 01:16:36;;;;;;;23.80;13.40;;;17.40;83.80;;;;;;5094560;28;20666;-90
2021/07/17 01:19:02;;;;;;;27.10;13.40;;;17.50;83.60;;;;;;5093033;28;20702;-90
2021/07/17 01:21:29;;;;;;;33.17;14.07;;;17.50;83.60;;;;;;5092218;28;20207;-91
2021/07/17 01:23:55;;;;;;;27.40;14.15;;;17.50;83.50;;;;;;5093780;28;20253;-90
2021/07/17 01:26:22;;;;;;;33.00;14.60;;;17.50;83.70;;;;;;5092318;28;20639;-91
2021/07/17 01:28:48;;;;;;;30.42;13.82;;;17.50;83.60;;;;;;5092555;28;20425;-90
2021/07/17 01:31:15;;;;;;;27.70;13.77;;;17.60;83.30;;;;;;5091842;28;20568;-90
2021/07/17 01:33:41;;;;;;;38.75;12.88;;;17.70;82.40;;;;;;5092119;28;20562;-90
2021/07/17 01:36:07;;;;;;;30.33;13.52;;;17.80;82.10;;;;;;5092265;28;20186;-89
2021/07/17 01:38:33;;;;;;;35.07;13.37;;;17.70;82.30;;;;;;5092494;28;20207;-88
2021/07/17 01:40:59;;;;;;;28.77;13.07;;;17.90;81.90;;;;;;5093299;28;20414;-90
2021/07/17 01:43:24;;;;;;;36.37;12.67;;;17.90;81.70;;;;;;5092033;28;20979;-91
2021/07/17 01:45:50;;;;;;;35.87;13.03;;;17.80;81.90;;;;;;5092236;28;20413;-90
2021/07/17 01:48:16;;;;;;;25.60;12.60;;;17.80;82.10;;;;;;5093870;28;20410;-91
2021/07/17 01:50:43;;;;;;;22.33;12.77;;;17.80;83.00;;;;;;5096838;28;20179;-91
2021/07/17 01:53:12;;;;;;;29.13;12.65;;;17.80;82.40;;;;;;5095872;28;20183;-90
2021/07/17 01:55:38;;;;;;;25.38;12.95;;;17.80;82.50;;;;;;5095355;28;20658;-90
2021/07/17 01:58:04;;;;;;;28.70;13.23;;;17.80;82.60;;;;;;5096660;28;20230;-90
2021/07/17 02:00:30;;;;;;;25.03;13.63;;;17.90;82.30;;;;;;5094856;28;20650;-91
2021/07/17 02:02:57;;;;;;;29.05;15.20;;;17.90;82.10;;;;;;5095000;28;20550;-91
2021/07/17 02:05:26;;;;;;;25.20;14.80;;;18.00;81.90;;;;;;5095360;28;20540;-90
2021/07/17 02:07:52;;;;;;;23.73;13.48;;;18.00;81.60;;;;;;5096701;28;20186;-91
2021/07/17 02:10:26;;;;;;;32.58;13.85;;;18.10;81.50;;;;;;5094927;28;20597;-91
2021/07/17 02:13:03;;;;;;;34.95;13.90;;;18.00;81.10;;;;;;5095289;28;20290;-91
2021/07/17 02:15:35;;;;;;;26.45;12.18;;;18.20;80.80;;;;;;5095459;28;20195;-90
2021/07/17 02:18:01;;;;;;;21.30;12.40;;;18.10;80.90;;;;;;5095183;28;20176;-91
2021/07/17 02:20:28;;;;;;;37.53;14.60;;;18.00;81.20;;;;;;5096185;28;20176;-91
2021/07/17 02:22:54;;;;;;;32.22;12.73;;;18.10;81.60;;;;;;5094866;28;20671;-91
2021/07/17 02:25:20;;;;;;;25.93;14.40;;;18.10;81.80;;;;;;5095009;28;20206;-91
2021/07/17 02:27:46;;;;;;;25.75;13.45;;;18.10;81.30;;;;;;5094949;28;20193;-91
2021/07/17 02:30:12;;;;;;;25.10;12.30;;;18.20;81.00;;;;;;5095432;28;20191;-91
2021/07/17 02:32:38;;;;;;;25.80;12.85;;;18.20;80.70;;;;;;5096115;28;20200;-91
2021/07/17 02:35:05;;;;;;;28.42;12.77;;;18.10;81.00;;;;;;5095267;28;20180;-91
2021/07/17 02:37:31;;;;;;;23.00;12.25;;;18.30;80.70;;;;;;5095227;28;20224;-90
2021/07/17 02:39:57;;;;;;;29.48;13.57;;;18.40;80.10;;;;;;5096506;28;20176;-91
2021/07/17 02:42:22;;;;;;;33.70;12.77;;;18.30;80.30;;;;;;5095240;28;20714;-91
2021/07/17 02:44:49;;;;;;;28.07;12.80;;;18.30;80.20;;;;;;5107253;28;20179;-91
2021/07/17 02:47:15;;;;;;;26.95;12.65;;;18.40;80.10;;;;;;5099498;28;20410;-91
2021/07/17 02:49:42;;;;;;;38.00;14.52;;;18.30;80.10;;;;;;5097508;28;20176;-90
2021/07/17 02:52:08;;;;;;;26.67;13.25;;;18.30;80.30;;;;;;5094417;28;20592;-91
2021/07/17 02:54:33;;;;;;;20.97;11.50;;;18.30;80.70;;;;;;5094568;28;20233;-91
2021/07/17 02:56:59;;;;;;;30.37;12.80;;;18.20;80.30;;;;;;5095025;28;20410;-90
2021/07/17 02:59:25;;;;;;;32.27;12.63;;;18.30;79.80;;;;;;5094105;28;20522;-91
2021/07/17 03:01:50;;;;;;;27.10;11.70;;;18.30;79.80;;;;;;5093916;28;20282;-90
2021/07/17 03:04:16;;;;;;;23.67;11.70;;;18.20;79.80;;;;;;5094287;28;20637;-91
2021/07/17 03:06:42;;;;;;;25.33;12.27;;;18.40;79.70;;;;;;5094276;28;20186;-90
2021/07/17 03:09:07;;;;;;;26.80;12.30;;;18.40;79.40;;;;;;5094567;28;20254;-91
2021/07/17 03:11:34;;;;;;;25.17;11.57;;;18.30;79.40;;;;;;5081188;28;20289;-90
2021/07/17 03:14:02;;;;;;;28.90;11.60;;;18.30;79.70;;;;;;5074067;28;20623;-91
2021/07/17 03:16:32;;;;;;;28.15;12.20;;;18.30;79.80;;;;;;5073701;28;20257;-91
2021/07/17 03:19:00;;;;;;;24.83;12.65;;;18.30;79.60;;;;;;5074089;28;20259;-91
2021/07/17 03:21:27;;;;;;;31.52;12.75;;;18.30;79.80;;;;;;5073649;28;20219;-91
2021/07/17 03:23:53;;;;;;;24.45;12.27;;;18.20;79.60;;;;;;5073974;28;20268;-91
2021/07/17 03:26:19;;;;;;;33.85;11.65;;;18.10;79.90;;;;;;5073525;28;20179;-91
2021/07/17 03:28:44;;;;;;;22.80;12.93;;;18.20;80.00;;;;;;5073937;28;20272;-90
2021/07/17 03:31:11;;;;;;;29.83;12.67;;;18.20;80.10;;;;;;5073360;28;20284;-91
2021/07/17 03:33:36;;;;;;;21.45;11.07;;;18.20;80.10;;;;;;5074421;28;20414;-91
2021/07/17 03:36:04;;;;;;;29.00;12.80;;;18.20;80.70;;;;;;5074635;28;20177;-91
2021/07/17 03:38:29;;;;;;;18.20;11.55;;;18.10;81.00;;;;;;5073866;28;20229;-91
2021/07/17 03:40:56;;;;;;;22.77;13.80;;;18.30;80.40;;;;;;5076133;28;20570;-91
2021/07/17 03:43:21;;;;;;;28.75;12.30;;;18.40;79.80;;;;;;5073445;28;20228;-91
2021/07/17 03:45:47;;;;;;;21.83;12.40;;;18.30;79.90;;;;;;5073653;28;20635;-91
2021/07/17 03:48:22;;;;;;;19.47;11.33;;;18.40;80.70;;;;;;5073665;28;20309;-90
2021/07/17 03:50:47;;;;;;;32.35;13.50;;;18.30;79.70;;;;;;5073435;28;20160;-91
2021/07/17 03:53:13;;;;;;;20.00;11.70;;;18.40;79.40;;;;;;5075148;28;20180;-91
2021/07/17 03:55:39;;;;;;;26.37;12.03;;;18.20;80.10;;;;;;5073798;28;20173;-90
2021/07/17 03:58:05;;;;;;;31.63;12.43;;;18.10;80.50;;;;;;5073869;28;20184;-91
2021/07/17 04:00:30;;;;;;;32.73;11.87;;;18.20;80.40;;;;;;5072837;28;20195;-91
2021/07/17 04:02:56;;;;;;;28.57;13.40;;;18.20;80.20;;;;;;5072991;28;20254;-91
2021/07/17 04:05:22;;;;;;;23.17;12.63;;;18.20;80.50;;;;;;5073242;28;20177;-91
2021/07/17 04:07:47;;;;;;;30.30;12.67;;;18.20;80.70;;;;;;5073179;28;20180;-89
2021/07/17 04:10:14;;;;;;;23.17;12.17;;;18.20;80.40;;;;;;5086167;28;20176;-89
2021/07/17 04:12:40;;;;;;;30.00;11.82;;;18.30;80.30;;;;;;5093491;28;20200;-91
2021/07/17 04:15:07;;;;;;;27.65;12.13;;;18.50;80.00;;;;;;5093494;28;20239;-91
2021/07/17 04:17:33;;;;;;;29.48;13.25;;;18.40;80.10;;;;;;5093926;28;20180;-91
2021/07/17 04:19:59;;;;;;;25.52;11.45;;;18.40;79.60;;;;;;5094074;28;20190;-90
2021/07/17 04:22:25;;;;;;;30.75;12.90;;;18.50;79.90;;;;;;5093293;28;20245;-90
2021/07/17 04:24:51;;;;;;;25.57;12.43;;;18.30;80.40;;;;;;5093583;28;20249;-90
2021/07/17 04:27:16;;;;;;;18.67;11.17;;;18.20;80.30;;;;;;5094245;28;20534;-90
2021/07/17 04:29:42;;;;;;;33.23;12.53;;;18.30;80.50;;;;;;5093546;28;20406;-91
2021/07/17 04:32:08;;;;;;;24.00;11.60;;;18.50;79.90;;;;;;5093431;28;20514;-91
2021/07/17 04:34:34;;;;;;;25.13;12.37;;;18.40;79.80;;;;;;5096435;28;20197;-91
2021/07/17 04:37:00;;;;;;;21.57;11.97;;;18.50;79.90;;;;;;5093444;28;20183;-91
2021/07/17 04:39:26;;;;;;;24.13;11.10;;;18.60;79.70;;;;;;5093025;28;20429;-91
2021/07/17 04:41:52;;;;;;;27.85;11.43;;;18.70;79.40;;;;;;5092540;28;20544;-91
2021/07/17 04:44:18;;;;;;;28.67;12.38;;;18.70;78.80;;;;;;5092961;28;20180;-91
2021/07/17 04:46:44;;;;;;;25.67;10.90;;;18.80;78.40;;;;;;5093187;28;20194;-91
2021/07/17 04:49:09;;;;;;;20.50;11.20;;;18.80;78.30;;;;;;5092800;28;20410;-91
2021/07/17 04:51:35;;;;;;;28.73;10.73;;;18.70;78.70;;;;;;5092343;28;20199;-91
2021/07/17 04:54:01;;;;;;;22.60;11.50;;;18.80;78.40;;;;;;5093035;28;20175;-91
2021/07/17 04:56:26;;;;;;;21.07;10.50;;;18.70;78.50;;;;;;5093273;28;20179;-90
2021/07/17 04:58:52;;;;;;;24.37;10.83;;;18.80;78.30;;;;;;5093037;28;20701;-91
2021/07/17 05:01:18;;;;;;;23.10;11.33;;;18.80;78.00;;;;;;5092213;28;20680;-90
2021/07/17 05:03:44;;;;;;;17.58;9.70;;;18.90;78.40;;;;;;5093151;28;20207;-91
2021/07/17 05:06:10;;;;;;;39.97;13.23;;;18.90;78.20;;;;;;5095516;28;20183;-91
2021/07/17 05:08:36;;;;;;;29.00;11.50;;;18.90;78.10;;;;;;5096759;28;20402;-91
2021/07/17 05:11:02;;;;;;;20.90;10.10;;;18.90;78.00;;;;;;5095059;28;20683;-90
2021/07/17 05:13:28;;;;;;;21.58;9.70;;;18.90;78.30;;;;;;5094251;28;20176;-91
2021/07/17 05:15:54;;;;;;;22.10;10.05;;;18.90;78.40;;;;;;5094352;28;20223;-91
2021/07/17 05:18:21;;;;;;;24.77;10.70;;;19.00;78.20;;;;;;5094763;28;20199;-90
2021/07/17 05:20:47;;;;;;;25.83;11.50;;;19.00;77.80;;;;;;5093529;28;20182;-91
2021/07/17 05:23:16;;;;;;;29.13;11.05;;;19.20;77.60;;;;;;5097240;28;20200;-91
2021/07/17 05:25:42;;;;;;;15.23;10.13;;;19.10;77.90;;;;;;5097744;28;20172;-91
2021/07/17 05:28:08;;;;;;;23.85;10.43;;;19.20;78.40;;;;;;5104694;28;20171;-90
2021/07/17 05:30:34;;;;;;;30.83;12.13;;;19.40;77.20;;;;;;5097953;28;20221;-91
2021/07/17 05:33:00;;;;;;;33.50;13.30;;;19.40;76.40;;;;;;5097092;28;20524;-91
2021/07/17 05:35:28;;;;;;;17.63;9.80;;;19.40;76.50;;;;;;5096893;28;20413;-90
2021/07/17 05:38:01;;;;;;;19.05;11.00;;;19.40;76.80;;;;;;5096923;28;20546;-91
2021/07/17 05:40:27;;;;;;;17.52;10.43;;;19.60;76.20;;;;;;5096178;28;20662;-90
2021/07/17 05:42:53;;;;;;;26.13;10.00;;;19.50;75.80;;;;;;5095947;28;20207;-91
2021/07/17 05:45:19;;;;;;;20.27;10.73;;;19.40;75.60;;;;;;5097435;28;20172;-91
2021/07/17 05:47:45;;;;;;;25.00;10.00;;;19.40;75.40;;;;;;5096333;28;20208;-91
2021/07/17 05:50:11;;;;;;;18.55;9.70;;;19.40;75.50;;;;;;5096231;28;20414;-91
2021/07/17 05:52:37;;;;;;;31.67;10.00;;;19.50;74.90;;;;;;5096093;28;20199;-91
2021/07/17 05:55:04;;;;;;;23.00;10.30;;;19.50;74.80;;;;;;5096160;28;20662;-91
2021/07/17 05:57:32;;;;;;;19.80;8.93;;;19.70;74.80;;;;;;5097163;28;20615;-90
2021/07/17 05:59:59;;;;;;;23.98;10.85;;;19.70;74.90;;;;;;5096293;28;20187;-90
2021/07/17 06:02:28;;;;;;;19.65;9.10;;;19.80;74.40;;;;;;5095605;28;20630;-91
2021/07/17 06:04:54;;;;;;;17.60;8.93;;;19.90;73.80;;;;;;5096532;28;20175;-90
2021/07/17 06:07:20;;;;;;;25.50;7.97;;;20.00;72.70;;;;;;5097022;28;20172;-91
2021/07/17 06:09:46;;;;;;;23.63;9.05;;;20.10;72.40;;;;;;5096238;28;20414;-91
2021/07/17 06:12:12;;;;;;;23.23;8.53;;;20.00;72.10;;;;;;5095569;28;20207;-90
2021/07/17 06:14:39;;;;;;;24.23;8.63;;;20.20;71.70;;;;;;5095908;28;20184;-90
2021/07/17 06:17:09;;;;;;;18.90;8.32;;;20.60;71.00;;;;;;5084519;28;20181;-90
2021/07/17 06:19:35;;;;;;;18.13;6.95;;;20.70;70.50;;;;;;5075000;28;20176;-90
2021/07/17 06:22:00;;;;;;;15.43;9.23;;;20.80;69.50;;;;;;5074389;28;20297;-90
2021/07/17 06:24:26;;;;;;;27.83;10.60;;;20.70;70.10;;;;;;5075778;28;20176;-90
2021/07/17 06:26:51;;;;;;;22.00;8.80;;;20.60;70.30;;;;;;5076375;28;20571;-90
2021/07/17 06:29:17;;;;;;;19.87;8.70;;;20.50;70.80;;;;;;5075218;28;20662;-90
2021/07/17 06:31:43;;;;;;;17.17;8.50;;;20.50;70.80;;;;;;5075580;28;20675;-90
2021/07/17 06:34:09;;;;;;;14.90;9.00;;;20.50;70.80;;;;;;5075534;28;20183;-90
2021/07/17 06:36:35;;;;;;;16.20;8.93;;;20.50;70.80;;;;;;5077407;28;20233;-90
2021/07/17 06:39:00;;;;;;;28.80;8.50;;;20.30;71.40;;;;;;5075970;28;20656;-90
2021/07/17 06:41:26;;;;;;;17.23;7.90;;;20.40;71.30;;;;;;5075413;28;20204;-90
2021/07/17 06:43:52;;;;;;;18.77;8.23;;;20.50;70.70;;;;;;5074792;28;20172;-90
2021/07/17 06:46:18;;;;;;;18.00;8.23;;;20.40;70.60;;;;;;5074971;28;20454;-90
2021/07/17 06:48:43;;;;;;;19.10;8.93;;;20.40;70.80;;;;;;5074785;28;20176;-90
2021/07/17 06:51:09;;;;;;;21.30;8.80;;;20.30;70.60;;;;;;5074926;28;20200;-90
2021/07/17 06:53:36;;;;;;;18.97;8.00;;;20.50;70.70;;;;;;5076272;28;20715;-90
2021/07/17 06:56:02;;;;;;;23.85;9.27;;;20.50;70.30;;;;;;5074604;28;20200;-90
2021/07/17 06:58:28;;;;;;;29.07;9.47;;;20.50;70.10;;;;;;5074294;28;20234;-90
2021/07/17 07:00:54;;;;;;;14.00;7.85;;;20.50;70.20;;;;;;5073777;28;20469;-90
2021/07/17 07:03:19;;;;;;;26.87;8.70;;;20.50;70.00;;;;;;5074625;28;20714;-90
2021/07/17 07:05:45;;;;;;;23.03;8.73;;;20.60;70.10;;;;;;5074809;28;20263;-90
2021/07/17 07:08:11;;;;;;;20.27;9.50;;;20.50;70.20;;;;;;5075467;28;20168;-90
2021/07/17 07:10:36;;;;;;;12.50;7.57;;;20.50;70.40;;;;;;5090334;28;20202;-90
2021/07/17 07:13:13;;;;;;;18.23;8.20;;;20.50;70.20;;;;;;5094458;28;20270;-90
2021/07/17 07:15:39;;;;;;;20.17;8.77;;;20.70;70.10;;;;;;5094615;28;20187;-90
2021/07/17 07:18:06;;;;;;;18.30;8.27;;;20.80;69.50;;;;;;5098264;28;20440;-90
2021/07/17 07:20:32;;;;;;;17.43;8.37;;;21.20;68.60;;;;;;5094537;28;20418;-90
2021/07/17 07:22:59;;;;;;;19.17;7.33;;;21.50;67.60;;;;;;5094430;28;20453;-90
2021/07/17 07:25:24;;;;;;;15.70;7.57;;;21.60;67.00;;;;;;5094300;28;20435;-90
2021/07/17 07:27:50;;;;;;;16.40;8.10;;;21.90;65.90;;;;;;5094298;28;20513;-90
2021/07/17 07:30:16;;;;;;;24.60;8.07;;;22.30;66.00;;;;;;5094146;28;20179;-90
2021/07/17 07:32:43;;;;;;;21.73;10.30;;;22.60;64.90;;;;;;5094379;28;20692;-90
2021/07/17 07:35:09;;;;;;;13.97;7.77;;;22.60;64.30;;;;;;5094270;28;20507;-90
2021/07/17 07:37:35;;;;;;;17.77;7.83;;;22.40;63.50;;;;;;5094307;28;20513;-90
2021/07/17 07:40:02;;;;;;;17.53;8.60;;;22.30;65.00;;;;;;5096548;28;20437;-91
2021/07/17 07:42:28;;;;;;;22.80;7.17;;;22.10;65.50;;;;;;5095059;28;20206;-90
2021/07/17 07:44:54;;;;;;;12.97;7.57;;;22.10;65.50;;;;;;5096198;28;20421;-91
2021/07/17 07:47:19;;;;;;;20.10;9.20;;;22.00;64.90;;;;;;5096103;28;20410;-90
2021/07/17 07:49:46;;;;;;;21.23;9.33;;;21.90;65.70;;;;;;5096025;28;20471;-90
2021/07/17 07:52:13;;;;;;;24.03;9.00;;;21.80;66.40;;;;;;5094778;28;20203;-90
2021/07/17 07:54:40;;;;;;;14.13;7.80;;;21.80;66.50;;;;;;5094626;28;20421;-90
2021/07/17 07:57:06;;;;;;;14.40;7.50;;;21.70;66.80;;;;;;5095082;28;20422;-90
2021/07/17 07:59:32;;;;;;;16.07;7.50;;;21.70;66.90;;;;;;5095387;28;20485;-90
2021/07/17 08:01:58;;;;;;;23.57;8.80;;;21.30;67.70;;;;;;5094885;28;20457;-90
2021/07/17 08:04:23;;;;;;;26.40;9.20;;;21.30;68.40;;;;;;5095957;28;20426;-90
2021/07/17 08:06:49;;;;;;;12.33;7.90;;;21.30;68.70;;;;;;5094451;28;20665;-90
2021/07/17 08:09:15;;;;;;;18.37;8.63;;;21.40;68.40;;;;;;5093967;28;20180;-90
2021/07/17 08:11:40;;;;;;;19.60;8.40;;;21.50;68.80;;;;;;5095107;28;20233;-90
2021/07/17 08:14:06;;;;;;;20.77;8.60;;;21.40;68.20;;;;;;5094926;28;20180;-90
2021/07/17 08:16:32;;;;;;;28.80;8.67;;;21.40;68.40;;;;;;5093462;28;20191;-90
2021/07/17 08:18:58;;;;;;;18.37;8.50;;;21.40;68.40;;;;;;5094386;28;20449;-90
2021/07/17 08:21:24;;;;;;;20.73;7.10;;;21.40;67.90;;;;;;5092823;28;20207;-90
2021/07/17 08:23:49;;;;;;;33.73;8.43;;;21.50;67.90;;;;;;5093426;28;20171;-90
2021/07/17 08:26:15;;;;;;;12.80;7.43;;;21.40;67.80;;;;;;5093126;28;20180;-90
2021/07/17 08:28:41;;;;;;;27.27;8.47;;;21.70;68.10;;;;;;5094400;28;20172;-90
2021/07/17 08:31:07;;;;;;;23.63;7.80;;;21.60;67.90;;;;;;5094491;28;20432;-90
2021/07/17 08:33:33;;;;;;;20.30;7.60;;;21.60;68.00;;;;;;5093153;28;20901;-89
2021/07/17 08:35:59;;;;;;;22.93;7.90;;;21.50;69.00;;;;;;5093316;28;20172;-90
2021/07/17 08:38:25;;;;;;;10.00;7.13;;;21.70;68.40;;;;;;5093146;28;20415;-90
2021/07/17 08:40:55;;;;;;;10.90;6.20;;;21.60;68.50;;;;;;5092650;28;20418;-89
2021/07/17 08:43:22;;;;;;;20.03;6.37;;;21.50;68.30;;;;;;5093454;28;20287;-90
2021/07/17 08:45:49;;;;;;;9.03;5.70;;;21.70;67.70;;;;;;5093050;28;20418;-90
2021/07/17 08:48:15;;;;;;;13.30;5.93;;;21.70;67.50;;;;;;5093032;28;20482;-90
2021/07/17 08:50:41;;;;;;;17.77;6.43;;;21.80;67.00;;;;;;5092457;28;20981;-90
2021/07/17 08:53:07;;;;;;;11.57;5.50;;;21.90;66.40;;;;;;5092916;28;20418;-90
2021/07/17 08:55:34;;;;;;;10.43;4.63;;;21.90;66.20;;;;;;5092853;28;20416;-90
2021/07/17 08:58:00;;;;;;;9.07;4.73;;;21.90;66.10;;;;;;5095882;28;20413;-90
2021/07/17 09:00:28;;;;;;;18.33;6.40;;;22.10;66.50;;;;;;5097611;28;20493;-90
2021/07/17 09:02:59;;;;;;;13.70;5.87;;;22.20;67.00;;;;;;5096427;28;20465;-89
2021/07/17 09:05:27;;;;;;;15.70;5.70;;;22.20;66.90;;;;;;5097074;28;20412;-90
2021/07/17 09:07:54;;;;;;;15.90;6.13;;;22.30;66.80;;;;;;5099500;28;20479;-90
2021/07/17 09:10:33;;;;;;;8.03;5.23;;;22.10;67.00;;;;;;5098353;28;20410;-90
2021/07/17 09:13:13;;;;;;;16.60;5.63;;;22.10;66.40;;;;;;5096718;28;20520;-90
2021/07/17 09:16:01;;;;;;;10.33;4.63;;;22.10;65.40;;;;;;5096548;28;20445;-90
2021/07/17 09:18:49;;;;;;;14.33;5.40;;;22.30;65.10;;;;;;5092957;28;20916;-90
2021/07/17 09:21:22;;;;;;;15.50;5.60;;;22.40;65.00;;;;;;5095867;28;20623;-90
2021/07/17 09:23:52;;;;;;;14.20;4.80;;;22.40;66.00;;;;;;5096491;28;20413;-90
2021/07/17 09:26:24;;;;;;;11.93;5.33;;;22.40;66.20;;;;;;5085785;28;20514;-90
2021/07/17 09:28:57;;;;;;;11.50;4.80;;;22.20;66.70;;;;;;5076886;28;20419;-90
2021/07/17 09:31:25;;;;;;;10.13;4.50;;;22.30;67.00;;;;;;5075885;28;20456;-90
2021/07/17 09:33:52;;;;;;;16.23;5.33;;;22.40;66.30;;;;;;5076170;28;20423;-89
2021/07/17 09:36:19;;;;;;;12.50;4.97;;;22.50;66.00;;;;;;5076494;28;20433;-90
2021/07/17 09:38:51;;;;;;;10.00;4.20;;;22.50;65.10;;;;;;5077291;28;20982;-90
2021/07/17 09:41:19;;;;;;;7.97;4.20;;;22.70;64.90;;;;;;5076537;28;20427;-90
2021/07/17 09:43:44;;;;;;;15.03;4.67;;;22.80;64.00;;;;;;5076212;28;20411;-90
2021/07/17 09:46:24;;;;;;;6.37;4.27;;;22.70;63.10;;;;;;5075756;28;20989;-90
2021/07/17 09:49:16;;;;;;;7.63;4.10;;;22.90;63.70;;;;;;5076179;28;20176;-90
2021/07/17 09:51:42;;;;;;;7.03;4.30;;;22.90;63.70;;;;;;5075377;28;20484;-90
2021/07/17 09:54:08;;;;;;;9.13;4.60;;;22.90;63.40;;;;;;5075882;28;20422;-90
2021/07/17 09:56:36;;;;;;;9.57;4.07;;;22.90;63.10;;;;;;5075731;28;20567;-90
2021/07/17 09:59:07;;;;;;;12.77;3.87;;;23.00;62.60;;;;;;5075490;28;20611;-90
2021/07/17 10:01:38;;;;;;;6.10;3.57;;;23.10;62.00;;;;;;5076229;28;20791;-90
2021/07/17 10:04:05;;;;;;;7.03;3.73;;;23.20;61.20;;;;;;5076595;28;20465;-90
2021/07/17 10:06:45;;;;;;;5.03;3.53;;;23.20;61.10;;;;;;5075599;28;20426;-90
2021/07/17 10:09:14;;;;;;;7.30;3.20;;;23.30;61.10;;;;;;5074396;28;20425;-90
2021/07/17 10:11:43;;;;;;;8.40;4.27;;;23.40;61.10;;;;;;5074624;28;20442;-90
2021/07/17 10:14:23;;;;;;;7.20;3.93;;;23.50;61.10;;;;;;5075457;28;20787;-90
2021/07/17 10:16:53;;;;;;;8.87;3.63;;;23.60;61.10;;;;;;5076357;28;20426;-90
2021/07/17 10:19:19;;;;;;;8.10;3.80;;;23.70;60.90;;;;;;5076151;28;20422;-90
2021/07/17 10:21:46;;;;;;;7.73;3.57;;;23.90;60.70;;;;;;5075989;28;20980;-90
2021/07/17 10:24:13;;;;;;;6.90;4.00;;;23.90;60.70;;;;;;5076911;28;20410;-90
2021/07/17 10:26:40;;;;;;;10.10;3.50;;;24.00;59.70;;;;;;5076141;28;20427;-90
2021/07/17 10:29:08;;;;;;;5.17;3.67;;;23.80;60.20;;;;;;5076418;28;20415;-90
2021/07/17 10:31:35;;;;;;;8.53;3.63;;;23.70;60.80;;;;;;5076931;28;20427;-90
2021/07/17 10:34:01;;;;;;;8.80;3.00;;;23.80;60.80;;;;;;5075473;28;20917;-90
2021/07/17 10:36:28;;;;;;;6.97;2.87;;;23.90;59.50;;;;;;5076522;28;20642;-90
2021/07/17 10:39:01;;;;;;;7.00;3.47;;;24.10;59.20;;;;;;5076770;28;20449;-90
2021/07/17 10:41:34;;;;;;;7.63;3.67;;;24.30;59.10;;;;;;5076014;28;20488;-90
2021/07/17 10:44:00;;;;;;;5.87;3.13;;;24.20;58.80;;;;;;5074731;28;20525;-90
2021/07/17 10:46:27;;;;;;;13.90;3.60;;;24.10;58.40;;;;;;5075071;28;20926;-90
2021/07/17 10:48:55;;;;;;;4.37;2.90;;;24.20;58.60;;;;;;5075102;28;20701;-89
2021/07/17 10:51:26;;;;;;;5.90;3.00;;;24.40;58.80;;;;;;5074728;28;20437;-90
2021/07/17 10:53:58;;;;;;;13.80;3.07;;;24.50;58.10;;;;;;5077251;28;20902;-89
2021/07/17 10:56:30;;;;;;;5.90;3.50;;;24.60;58.10;;;;;;5077613;28;20418;-90
2021/07/17 10:59:00;;;;;;;6.57;3.30;;;24.70;57.70;;;;;;5075310;28;20508;-90
2021/07/17 11:01:46;;;;;;;7.63;2.87;;;24.50;57.20;;;;;;5073907;28;20595;-90
2021/07/17 11:04:30;;;;;;;7.90;3.33;;;24.60;57.10;;;;;;5085505;28;20502;-90
2021/07/17 11:07:16;;;;;;;5.20;3.77;;;24.60;57.30;;;;;;5094912;28;20421;-90
2021/07/17 11:09:48;;;;;;;8.63;3.60;;;24.60;57.70;;;;;;5095220;28;20410;-91
2021/07/17 11:12:26;;;;;;;8.90;3.60;;;24.60;58.70;;;;;;5094981;28;20522;-91
2021/07/17 11:15:17;;;;;;;5.20;3.70;;;24.60;58.30;;;;;;5094582;28;20445;-90
2021/07/17 11:17:51;;;;;;;8.37;3.33;;;24.60;57.40;;;;;;5090944;28;20948;-90
2021/07/17 11:20:17;;;;;;;6.00;3.60;;;24.80;57.90;;;;;;5093967;28;20556;-91
2021/07/17 11:22:44;;;;;;;6.23;2.50;;;24.90;57.40;;;;;;5094168;28;20560;-90
2021/07/17 11:25:16;;;;;;;5.23;3.33;;;25.00;57.10;;;;;;5094554;28;20210;-90
2021/07/17 11:27:42;;;;;;;7.63;2.57;;;25.10;56.20;;;;;;5094126;28;20405;-90
2021/07/17 11:30:19;;;;;;;3.83;2.60;;;24.90;55.90;;;;;;5095512;28;20493;-90
2021/07/17 11:33:04;;;;;;;5.70;2.87;;;25.10;55.90;;;;;;5095260;28;20475;-90
2021/07/17 11:35:31;;;;;;;4.37;2.70;;;25.20;55.80;;;;;;5094668;28;20433;-90
2021/07/17 11:37:56;;;;;;;6.50;2.70;;;25.20;56.20;;;;;;5095862;28;20429;-91
2021/07/17 11:40:22;;;;;;;5.03;2.80;;;25.40;55.70;;;;;;5096000;28;20410;-91
2021/07/17 11:42:49;;;;;;;3.33;2.20;;;25.20;56.10;;;;;;5094316;28;20265;-90
2021/07/17 11:45:14;;;;;;;4.87;2.50;;;25.10;54.20;;;;;;5093952;28;20417;-90
2021/07/17 11:47:41;;;;;;;5.17;2.90;;;25.00;53.40;;;;;;5094769;28;20487;-90
2021/07/17 11:50:08;;;;;;;8.73;2.80;;;25.20;53.60;;;;;;5094322;28;20595;-90
2021/07/17 11:52:37;;;;;;;5.23;2.53;;;25.20;53.70;;;;;;5095607;28;20517;-90
2021/07/17 11:55:06;;;;;;;4.23;2.03;;;25.20;52.90;;;;;;5093351;28;20909;-91
2021/07/17 11:57:34;;;;;;;5.57;2.67;;;25.30;53.80;;;;;;5093680;28;20785;-90
2021/07/17 12:00:15;;;;;;;10.90;2.43;;;25.30;53.30;;;;;;5094537;28;20832;-91
2021/07/17 12:02:42;;;;;;;2.70;2.00;;;25.30;52.70;;;;;;5093761;28;20465;-90
2021/07/17 12:05:14;;;;;;;4.27;2.50;;;25.30;52.90;;;;;;5094895;28;20869;-90
2021/07/17 12:07:41;;;;;;;7.33;3.10;;;25.40;52.40;;;;;;5093557;28;20935;-90
2021/07/17 12:10:08;;;;;;;6.40;2.13;;;25.40;51.80;;;;;;5081313;28;20763;-91
2021/07/17 12:12:35;;;;;;;6.17;2.40;;;25.40;51.50;;;;;;5072180;28;20438;-90
2021/07/17 12:15:01;;;;;;;4.37;2.30;;;25.60;51.80;;;;;;5073228;28;20942;-91
2021/07/17 12:17:28;;;;;;;6.03;2.20;;;25.60;52.20;;;;;;5074881;28;20415;-91
2021/07/17 12:20:07;;;;;;;3.50;2.23;;;25.60;51.90;;;;;;5074827;28;20831;-90
2021/07/17 12:22:34;;;;;;;3.83;2.90;;;25.70;52.30;;;;;;5072633;28;20466;-90
2021/07/17 12:25:07;;;;;;;5.57;2.33;;;25.50;52.90;;;;;;5074156;28;20418;-90
2021/07/17 12:27:49;;;;;;;5.87;2.60;;;25.40;53.10;;;;;;5073132;28;20480;-91
2021/07/17 12:30:15;;;;;;;3.67;2.23;;;25.50;53.00;;;;;;5073223;28;20432;-90
2021/07/17 12:32:40;;;;;;;4.93;1.73;;;25.60;50.20;;;;;;5072379;28;20439;-90
2021/07/17 12:35:06;;;;;;;2.73;1.70;;;25.40;47.80;;;;;;5072951;28;20233;-90